createdAt,value
2022-12-12T00:00:14.049Z,3.02
2022-12-12T00:01:14.040Z,2.95
2022-12-12T00:02:14.108Z,2.95
2022-12-12T00:03:14.135Z,2.98
2022-12-12T00:04:14.059Z,2.97
2022-12-12T00:05:14.282Z,2.97
2022-12-12T00:06:13.991Z,3.00
2022-12-12T00:07:13.975Z,3.00
2022-12-12T00:08:14.057Z,3.06
2022-12-12T00:09:13.979Z,3.03
2022-12-12T00:10:13.943Z,3.03
2022-12-12T00:11:13.911Z,3.06
2022-12-12T00:12:13.910Z,3.10
2022-12-12T00:13:13.908Z,3.10
2022-12-12T00:14:13.879Z,3.02
2022-12-12T00:15:14.173Z,2.87
2022-12-12T00:16:13.900Z,2.58
2022-12-12T00:17:13.853Z,2.45
2022-12-12T00:18:13.848Z,2.56
2022-12-12T00:19:13.830Z,2.52
2022-12-12T00:20:13.865Z,2.59
2022-12-12T00:21:13.863Z,2.69
2022-12-12T00:22:13.826Z,2.74
2022-12-12T00:23:13.949Z,2.85
2022-12-12T00:24:13.787Z,2.87
2022-12-12T00:25:14.118Z,2.92
2022-12-12T00:26:13.762Z,2.77
2022-12-12T00:27:13.784Z,2.85
2022-12-12T00:28:13.751Z,2.94
2022-12-12T00:29:13.783Z,2.97
2022-12-12T00:30:13.730Z,2.98
2022-12-12T00:31:13.744Z,3.02
2022-12-12T00:32:13.723Z,3.07
2022-12-12T00:33:13.703Z,3.07
2022-12-12T00:34:13.692Z,3.07
2022-12-12T00:35:13.856Z,3.06
2022-12-12T00:36:13.643Z,3.05
2022-12-12T00:37:13.629Z,3.05
2022-12-12T00:38:13.665Z,3.10
2022-12-12T00:39:18.170Z,3.06
2022-12-12T00:40:13.608Z,3.06
2022-12-12T00:41:13.583Z,3.05
2022-12-12T00:42:13.592Z,3.05
2022-12-12T00:43:13.582Z,3.05
2022-12-12T00:44:13.539Z,3.10
2022-12-12T00:45:13.717Z,3.12
2022-12-12T00:46:13.556Z,3.09
2022-12-12T00:47:13.536Z,3.00
2022-12-12T00:48:13.511Z,2.92
2022-12-12T00:49:13.517Z,2.71
2022-12-12T00:50:13.474Z,2.56
2022-12-12T00:51:13.471Z,2.67
2022-12-12T00:52:13.466Z,2.81
2022-12-12T00:53:13.468Z,2.87
2022-12-12T00:54:13.435Z,2.97
2022-12-12T00:55:13.758Z,3.00
2022-12-12T00:56:13.437Z,3.02
2022-12-12T00:57:13.401Z,3.07
2022-12-12T00:58:13.412Z,3.12
2022-12-12T00:59:13.391Z,3.15
2022-12-12T01:00:13.366Z,3.16
2022-12-12T01:01:13.444Z,3.15
2022-12-12T01:02:13.359Z,3.05
2022-12-12T01:03:13.387Z,3.07
2022-12-12T01:04:13.332Z,3.09
2022-12-12T01:05:13.605Z,3.09
2022-12-12T01:06:13.306Z,3.13
2022-12-12T01:07:14.244Z,3.15
2022-12-12T01:08:13.367Z,3.09
2022-12-12T01:09:13.273Z,3.10
2022-12-12T01:10:13.256Z,3.15
2022-12-12T01:11:13.275Z,3.18
2022-12-12T01:12:13.256Z,3.16
2022-12-12T01:13:13.222Z,3.15
2022-12-12T01:14:13.214Z,3.15
2022-12-12T01:15:13.369Z,3.18
2022-12-12T01:16:13.270Z,3.15
2022-12-12T01:17:13.184Z,3.18
2022-12-12T01:18:13.193Z,3.18
2022-12-12T01:19:13.142Z,3.13
2022-12-12T01:20:13.145Z,3.10
2022-12-12T01:21:13.149Z,2.95
2022-12-12T01:22:13.126Z,2.88
2022-12-12T01:23:13.123Z,2.70
2022-12-12T01:24:13.116Z,2.44
2022-12-12T01:25:13.407Z,2.26
2022-12-12T01:26:13.065Z,2.44
2022-12-12T01:27:13.054Z,2.64
2022-12-12T01:28:13.056Z,2.79
2022-12-12T01:29:13.086Z,2.89
2022-12-12T01:30:13.060Z,2.92
2022-12-12T01:31:13.064Z,2.97
2022-12-12T01:32:13.005Z,2.92
2022-12-12T01:33:12.984Z,2.66
2022-12-12T01:34:12.977Z,2.71
2022-12-12T01:35:13.117Z,2.82
2022-12-12T01:36:12.955Z,2.88
2022-12-12T01:37:12.956Z,2.94
2022-12-12T01:38:12.937Z,3.02
2022-12-12T01:39:12.927Z,3.00
2022-12-12T01:40:12.919Z,2.81
2022-12-12T01:41:12.915Z,2.63
2022-12-12T01:42:12.895Z,2.33
2022-12-12T01:43:12.867Z,2.38
2022-12-12T01:44:12.866Z,2.53
2022-12-12T01:45:12.999Z,2.70
2022-12-12T01:46:12.871Z,2.73
2022-12-12T01:47:12.856Z,2.82
2022-12-12T01:48:12.816Z,2.89
2022-12-12T01:49:12.817Z,2.97
2022-12-12T01:50:12.815Z,2.56
2022-12-12T01:51:12.796Z,2.58
2022-12-12T01:52:12.778Z,2.59
2022-12-12T01:53:12.777Z,2.64
2022-12-12T01:54:12.760Z,2.63
2022-12-12T01:55:12.887Z,2.79
2022-12-12T01:56:20.356Z,2.63
2022-12-12T01:57:12.727Z,2.61
2022-12-12T01:58:12.705Z,2.67
2022-12-12T01:59:12.750Z,2.58
2022-12-12T02:00:12.722Z,2.46
2022-12-12T02:01:12.745Z,2.45
2022-12-12T02:02:12.766Z,2.49
2022-12-12T02:03:12.657Z,2.64
2022-12-12T02:04:12.698Z,2.73
2022-12-12T02:05:12.920Z,2.82
2022-12-12T02:06:12.646Z,2.88
2022-12-12T02:07:12.617Z,2.81
2022-12-12T02:08:12.645Z,2.74
2022-12-12T02:09:12.578Z,2.70
2022-12-12T02:10:12.608Z,2.79
2022-12-12T02:11:12.567Z,2.92
2022-12-12T02:12:12.588Z,2.98
2022-12-12T02:13:12.527Z,2.98
2022-12-12T02:14:12.538Z,3.03
2022-12-12T02:15:12.818Z,2.89
2022-12-12T02:16:12.622Z,2.95
2022-12-12T02:17:12.501Z,2.94
2022-12-12T02:18:12.825Z,3.00
2022-12-12T02:19:12.478Z,3.05
2022-12-12T02:20:12.515Z,3.09
2022-12-12T02:21:12.439Z,3.09
2022-12-12T02:22:12.480Z,3.10
2022-12-12T02:23:12.418Z,3.13
2022-12-12T02:24:12.419Z,3.20
2022-12-12T02:25:12.623Z,3.24
2022-12-12T02:26:12.409Z,3.23
2022-12-12T02:27:12.380Z,3.12
2022-12-12T02:28:12.459Z,3.03
2022-12-12T02:29:12.380Z,3.06
2022-12-12T02:30:12.358Z,3.07
2022-12-12T02:31:12.376Z,3.12
2022-12-12T02:32:12.348Z,3.16
2022-12-12T02:33:12.349Z,3.24
2022-12-12T02:34:12.315Z,3.23
2022-12-12T02:35:12.676Z,3.23
2022-12-12T02:36:12.339Z,3.23
2022-12-12T02:37:12.333Z,3.24
2022-12-12T02:38:12.262Z,3.16
2022-12-12T02:39:12.314Z,3.07
2022-12-12T02:40:12.238Z,2.98
2022-12-12T02:41:12.281Z,3.05
2022-12-12T02:42:12.225Z,3.07
2022-12-12T02:43:12.206Z,3.15
2022-12-12T02:44:12.249Z,3.15
2022-12-12T02:45:12.410Z,3.16
2022-12-12T02:46:12.215Z,3.15
2022-12-12T02:47:12.150Z,3.18
2022-12-12T02:48:12.163Z,3.18
2022-12-12T02:49:12.148Z,3.21
2022-12-12T02:50:12.169Z,3.25
2022-12-12T02:51:12.095Z,3.31
2022-12-12T02:52:12.109Z,3.39
2022-12-12T02:53:12.182Z,3.36
2022-12-12T02:54:12.093Z,3.39
2022-12-12T02:55:12.225Z,3.40
2022-12-12T02:56:12.095Z,3.34
2022-12-12T02:57:12.044Z,3.36
2022-12-12T02:58:12.029Z,3.40
2022-12-12T02:59:12.021Z,3.40
2022-12-12T03:00:12.002Z,3.40
2022-12-12T03:01:12.131Z,3.40
2022-12-12T03:02:12.042Z,3.40
2022-12-12T03:03:11.987Z,3.44
2022-12-12T03:04:11.959Z,3.39
2022-12-12T03:05:12.193Z,3.33
2022-12-12T03:06:11.952Z,3.27
2022-12-12T03:07:12.007Z,3.12
2022-12-12T03:08:11.965Z,2.94
2022-12-12T03:09:11.909Z,2.88
2022-12-12T03:10:11.902Z,2.94
2022-12-12T03:11:11.880Z,2.84
2022-12-12T03:12:11.871Z,2.88
2022-12-12T03:13:11.898Z,2.88
2022-12-12T03:14:11.856Z,3.02
2022-12-12T03:15:12.171Z,3.16
2022-12-12T03:16:11.895Z,2.98
2022-12-12T03:17:11.832Z,2.89
2022-12-12T03:18:11.795Z,2.95
2022-12-12T03:19:11.821Z,3.07
2022-12-12T03:20:11.780Z,3.10
2022-12-12T03:21:11.816Z,2.89
2022-12-12T03:22:11.802Z,2.84
2022-12-12T03:23:11.782Z,2.94
2022-12-12T03:24:11.751Z,3.07
2022-12-12T03:25:12.197Z,3.12
2022-12-12T03:26:11.728Z,3.20
2022-12-12T03:27:11.710Z,3.16
2022-12-12T03:28:11.686Z,3.12
2022-12-12T03:29:11.684Z,3.06
2022-12-12T03:30:11.717Z,3.09
2022-12-12T03:31:11.676Z,3.00
2022-12-12T03:32:11.645Z,2.87
2022-12-12T03:33:11.653Z,2.63
2022-12-12T03:34:11.623Z,2.69
2022-12-12T03:35:11.828Z,2.74
2022-12-12T03:36:11.606Z,2.76
2022-12-12T03:37:11.574Z,2.77
2022-12-12T03:38:11.563Z,2.71
2022-12-12T03:39:11.600Z,2.82
2022-12-12T03:40:11.533Z,2.95
2022-12-12T03:41:11.584Z,3.02
2022-12-12T03:42:11.530Z,3.09
2022-12-12T03:43:11.504Z,3.21
2022-12-12T03:44:11.508Z,3.28
2022-12-12T03:45:11.751Z,3.25
2022-12-12T03:46:11.499Z,3.15
2022-12-12T03:47:11.484Z,3.13
2022-12-12T03:48:19.029Z,3.16
2022-12-12T03:49:11.475Z,3.13
2022-12-12T03:50:11.426Z,3.24
2022-12-12T03:51:11.422Z,3.34
2022-12-12T03:52:11.401Z,3.39
2022-12-12T03:53:11.446Z,3.34
2022-12-12T03:54:11.383Z,3.33
2022-12-12T03:55:11.506Z,3.33
2022-12-12T03:56:11.373Z,3.33
2022-12-12T03:57:11.350Z,3.39
2022-12-12T03:58:11.332Z,3.40
2022-12-12T03:59:11.360Z,3.39
2022-12-12T04:00:11.314Z,3.25
2022-12-12T04:01:11.320Z,3.16
2022-12-12T04:02:11.326Z,3.21
2022-12-12T04:03:11.287Z,3.23
2022-12-12T04:04:11.288Z,3.18
2022-12-12T04:05:11.560Z,3.10
2022-12-12T04:06:11.252Z,3.15
2022-12-12T04:07:11.231Z,3.09
2022-12-12T04:08:11.320Z,3.06
2022-12-12T04:09:11.224Z,3.09
2022-12-12T04:10:11.224Z,3.02
2022-12-12T04:11:11.202Z,2.98
2022-12-12T04:12:11.217Z,2.92
2022-12-12T04:13:11.174Z,2.85
2022-12-12T04:14:11.154Z,2.85
2022-12-12T04:15:11.637Z,2.97
2022-12-12T04:16:11.245Z,2.95
2022-12-12T04:17:11.135Z,2.81
2022-12-12T04:18:11.103Z,2.73
2022-12-12T04:19:11.132Z,2.85
2022-12-12T04:20:11.186Z,2.98
2022-12-12T04:21:11.104Z,3.12
2022-12-12T04:22:15.286Z,3.21
2022-12-12T04:23:12.083Z,3.21
2022-12-12T04:24:11.046Z,3.16
2022-12-12T04:25:11.525Z,3.06
2022-12-12T04:26:11.044Z,2.98
2022-12-12T04:27:11.024Z,2.95
2022-12-12T04:28:11.014Z,2.94
2022-12-12T04:29:10.984Z,2.92
2022-12-12T04:30:10.977Z,3.00
2022-12-12T04:31:10.975Z,3.07
2022-12-12T04:32:10.996Z,3.20
2022-12-12T04:33:11.017Z,2.92
2022-12-12T04:34:10.934Z,2.88
2022-12-12T04:35:11.157Z,2.92
2022-12-12T04:36:10.911Z,3.07
2022-12-12T04:37:10.908Z,3.20
2022-12-12T04:38:10.907Z,3.25
2022-12-12T04:39:10.964Z,3.25
2022-12-12T04:40:10.884Z,3.25
2022-12-12T04:41:10.854Z,3.23
2022-12-12T04:42:10.887Z,3.03
2022-12-12T04:43:10.824Z,3.02
2022-12-12T04:44:10.812Z,2.85
2022-12-12T04:45:10.919Z,2.87
2022-12-12T04:46:10.874Z,2.98
2022-12-12T04:47:10.786Z,3.10
2022-12-12T04:48:10.773Z,3.16
2022-12-12T04:49:10.767Z,3.24
2022-12-12T04:50:10.776Z,3.20
2022-12-12T04:51:10.747Z,3.24
2022-12-12T04:52:10.788Z,3.25
2022-12-12T04:53:14.896Z,3.16
2022-12-12T04:54:11.718Z,3.30
2022-12-12T04:55:11.033Z,3.05
2022-12-12T04:56:10.715Z,2.64
2022-12-12T04:57:10.679Z,2.76
2022-12-12T04:58:10.692Z,2.71
2022-12-12T04:59:10.657Z,2.88
2022-12-12T05:00:10.640Z,3.05
2022-12-12T05:01:10.741Z,3.05
2022-12-12T05:02:10.684Z,2.98
2022-12-12T05:03:10.608Z,2.94
2022-12-12T05:04:10.612Z,2.92
2022-12-12T05:05:10.912Z,3.03
2022-12-12T05:06:10.564Z,3.15
2022-12-12T05:07:10.609Z,3.15
2022-12-12T05:08:10.576Z,3.16
2022-12-12T05:09:10.562Z,3.15
2022-12-12T05:10:10.538Z,3.21
2022-12-12T05:11:10.516Z,3.18
2022-12-12T05:12:10.505Z,3.16
2022-12-12T05:13:10.542Z,3.05
2022-12-12T05:14:10.480Z,3.00
2022-12-12T05:15:10.597Z,3.03
2022-12-12T05:16:10.451Z,2.94
2022-12-12T05:17:10.446Z,3.07
2022-12-12T05:18:10.451Z,3.12
2022-12-12T05:19:10.468Z,3.06
2022-12-12T05:20:10.419Z,3.03
2022-12-12T05:21:10.388Z,2.95
2022-12-12T05:22:10.381Z,2.95
2022-12-12T05:23:10.387Z,3.09
2022-12-12T05:24:10.361Z,3.21
2022-12-12T05:25:10.678Z,3.18
2022-12-12T05:26:10.362Z,3.16
2022-12-12T05:27:10.351Z,3.25
2022-12-12T05:28:10.316Z,3.27
2022-12-12T05:29:10.368Z,3.15
2022-12-12T05:30:10.300Z,2.98
2022-12-12T05:31:10.376Z,2.82
2022-12-12T05:32:10.268Z,2.67
2022-12-12T05:33:10.285Z,2.67
2022-12-12T05:34:10.262Z,2.69
2022-12-12T05:35:10.457Z,2.81
2022-12-12T05:36:10.228Z,2.79
2022-12-12T05:37:10.270Z,2.74
2022-12-12T05:38:10.356Z,2.79
2022-12-12T05:39:10.201Z,2.87
2022-12-12T05:40:10.225Z,2.92
2022-12-12T05:41:10.194Z,2.85
2022-12-12T05:42:10.185Z,2.73
2022-12-12T05:43:10.197Z,2.66
2022-12-12T05:44:10.193Z,2.46
2022-12-12T05:45:10.388Z,2.28
2022-12-12T05:46:10.181Z,2.22
2022-12-12T05:47:10.128Z,2.28
2022-12-12T05:48:10.109Z,2.28
2022-12-12T05:49:10.098Z,2.37
2022-12-12T05:50:10.062Z,2.52
2022-12-12T05:51:10.147Z,2.56
2022-12-12T05:52:10.050Z,2.56
2022-12-12T05:53:10.028Z,2.70
2022-12-12T05:54:10.040Z,2.70
2022-12-12T05:55:10.232Z,2.74
2022-12-12T05:56:10.678Z,2.79
2022-12-12T05:57:09.988Z,2.61
2022-12-12T05:58:09.969Z,2.52
2022-12-12T05:59:10.040Z,2.74
2022-12-12T06:00:09.984Z,2.79
2022-12-12T06:01:10.085Z,2.70
2022-12-12T06:02:09.941Z,2.69
2022-12-12T06:03:09.951Z,2.85
2022-12-12T06:04:09.973Z,2.95
2022-12-12T06:05:09.979Z,2.91
2022-12-12T06:06:10.011Z,2.84
2022-12-12T06:07:09.935Z,2.64
2022-12-12T06:08:10.005Z,2.71
2022-12-12T06:09:09.858Z,2.71
2022-12-12T06:10:09.874Z,2.63
2022-12-12T06:11:09.848Z,2.70
2022-12-12T06:12:09.853Z,2.79
2022-12-12T06:13:09.838Z,2.88
2022-12-12T06:14:09.799Z,3.00
2022-12-12T06:15:09.813Z,2.94
2022-12-12T06:16:09.906Z,2.97
2022-12-12T06:17:09.821Z,2.98
2022-12-12T06:18:09.813Z,2.97
2022-12-12T06:19:09.804Z,2.91
2022-12-12T06:20:09.752Z,2.79
2022-12-12T06:21:09.760Z,2.92
2022-12-12T06:22:09.702Z,2.97
2022-12-12T06:23:09.701Z,2.89
2022-12-12T06:24:09.700Z,2.74
2022-12-12T06:25:09.661Z,2.73
2022-12-12T06:26:09.757Z,2.66
2022-12-12T06:27:09.769Z,2.79
2022-12-12T06:28:09.674Z,2.89
2022-12-12T06:29:09.623Z,3.00
2022-12-12T06:30:09.609Z,2.81
2022-12-12T06:31:11.904Z,2.74
2022-12-12T06:32:09.643Z,2.77
2022-12-12T06:33:09.630Z,2.94
2022-12-12T06:34:09.565Z,2.85
2022-12-12T06:35:09.562Z,2.74
2022-12-12T06:36:09.573Z,2.71
2022-12-12T06:37:15.608Z,2.71
2022-12-12T06:38:10.635Z,2.82
2022-12-12T06:39:10.409Z,2.94
2022-12-12T06:40:09.549Z,2.87
2022-12-12T06:41:09.543Z,2.77
2022-12-12T06:42:09.471Z,2.79
2022-12-12T06:43:09.484Z,2.97
2022-12-12T06:44:09.491Z,3.06
2022-12-12T06:45:09.442Z,3.06
2022-12-12T06:46:09.537Z,3.07
2022-12-12T06:47:10.771Z,3.07
2022-12-12T06:48:09.511Z,3.18
2022-12-12T06:49:09.779Z,3.13
2022-12-12T06:50:09.444Z,2.95
2022-12-12T06:51:09.529Z,2.94
2022-12-12T06:52:09.463Z,3.07
2022-12-12T06:53:09.548Z,3.10
2022-12-12T06:54:09.379Z,3.10
2022-12-12T06:55:09.473Z,3.13
2022-12-12T06:56:09.336Z,3.16
2022-12-12T06:57:09.587Z,3.13
2022-12-12T06:58:09.363Z,3.20
2022-12-12T06:59:09.484Z,3.10
2022-12-12T07:00:09.424Z,2.97
2022-12-12T07:01:09.389Z,2.95
2022-12-12T07:02:09.341Z,3.00
2022-12-12T07:03:09.278Z,2.97
2022-12-12T07:04:09.235Z,3.02
2022-12-12T07:05:09.213Z,3.18
2022-12-12T07:06:09.261Z,3.27
2022-12-12T07:07:09.194Z,3.20
2022-12-12T07:08:09.376Z,3.12
2022-12-12T07:09:09.172Z,3.10
2022-12-12T07:10:09.166Z,2.97
2022-12-12T07:11:09.177Z,3.06
2022-12-12T07:12:09.278Z,3.16
2022-12-12T07:13:09.207Z,3.21
2022-12-12T07:14:09.103Z,3.23
2022-12-12T07:15:09.094Z,3.27
2022-12-12T07:16:09.188Z,3.33
2022-12-12T07:17:09.131Z,3.27
2022-12-12T07:18:09.103Z,2.97
2022-12-12T07:19:09.067Z,2.98
2022-12-12T07:20:09.065Z,3.00
2022-12-12T07:21:09.044Z,3.15
2022-12-12T07:22:10.548Z,3.23
2022-12-12T07:23:09.135Z,3.25
2022-12-12T07:24:09.077Z,3.24
2022-12-12T07:25:08.996Z,3.27
2022-12-12T07:26:08.990Z,3.31
2022-12-12T07:27:08.983Z,3.25
2022-12-12T07:28:09.013Z,3.16
2022-12-12T07:29:09.026Z,3.10
2022-12-12T07:30:08.964Z,3.24
2022-12-12T07:31:08.957Z,3.16
2022-12-12T07:32:08.970Z,3.12
2022-12-12T07:33:16.515Z,3.31
2022-12-12T07:34:08.927Z,3.31
2022-12-12T07:35:09.053Z,3.39
2022-12-12T07:36:08.891Z,3.36
2022-12-12T07:37:08.856Z,3.28
2022-12-12T07:38:08.923Z,3.31
2022-12-12T07:39:08.834Z,3.15
2022-12-12T07:40:08.855Z,3.23
2022-12-12T07:41:08.809Z,3.33
2022-12-12T07:42:08.861Z,3.31
2022-12-12T07:44:36.158Z,3.49
2022-12-12T07:45:36.258Z,3.43
2022-12-12T07:46:36.214Z,3.42
2022-12-12T07:47:36.172Z,3.50
2022-12-12T07:48:36.099Z,3.52
2022-12-12T07:49:36.136Z,3.60
2022-12-12T07:50:36.086Z,3.62
2022-12-12T07:51:36.253Z,3.65
2022-12-12T07:52:36.125Z,3.64
2022-12-12T07:53:36.050Z,3.72
2022-12-12T07:54:36.182Z,3.76
2022-12-12T07:55:36.078Z,3.79
2022-12-12T07:56:36.030Z,3.71
2022-12-12T07:57:36.008Z,3.67
2022-12-12T07:58:36.029Z,3.64
2022-12-12T07:59:36.010Z,3.75
2022-12-12T08:00:36.038Z,3.67
2022-12-12T08:01:36.076Z,3.52
2022-12-12T08:02:35.978Z,3.42
2022-12-12T08:03:35.949Z,3.25
2022-12-12T08:04:36.075Z,2.95
2022-12-12T08:05:35.990Z,2.97
2022-12-12T08:06:35.976Z,3.09
2022-12-12T08:07:35.968Z,3.10
2022-12-12T08:08:35.897Z,3.20
2022-12-12T08:09:36.012Z,2.89
2022-12-12T08:10:35.879Z,2.76
2022-12-12T08:11:35.930Z,2.94
2022-12-12T08:12:36.852Z,3.16
2022-12-12T08:13:36.802Z,3.12
2022-12-12T08:14:37.074Z,3.28
2022-12-12T08:15:36.735Z,3.47
2022-12-12T08:16:35.983Z,3.61
2022-12-12T08:17:35.917Z,3.71
2022-12-12T08:18:35.856Z,3.86
2022-12-12T08:19:35.770Z,3.92
2022-12-12T08:20:35.740Z,3.90
2022-12-12T08:21:35.796Z,3.94
2022-12-12T08:22:35.811Z,3.97
2022-12-12T08:23:35.820Z,4.03
2022-12-12T08:24:35.845Z,3.94
2022-12-12T08:25:36.358Z,4.03
2022-12-12T08:26:38.373Z,4.08
2022-12-12T08:27:35.810Z,4.15
2022-12-12T08:28:35.805Z,4.14
2022-12-12T08:29:36.561Z,4.14
2022-12-12T08:30:35.701Z,4.14
2022-12-12T08:31:35.836Z,4.07
2022-12-12T08:32:35.782Z,4.07
2022-12-12T08:33:35.877Z,4.10
2022-12-12T08:34:36.086Z,4.16
2022-12-12T08:35:35.881Z,3.96
2022-12-12T08:36:35.711Z,4.00
2022-12-12T08:37:35.701Z,3.97
2022-12-12T08:38:35.684Z,3.96
2022-12-12T08:39:35.559Z,4.04
2022-12-12T08:40:35.663Z,4.10
2022-12-12T08:41:35.573Z,4.01
2022-12-12T08:42:35.591Z,4.03
2022-12-12T08:43:35.869Z,3.71
2022-12-12T08:44:35.625Z,3.52
2022-12-12T08:45:35.621Z,3.60
2022-12-12T08:46:35.621Z,3.70
2022-12-12T08:47:35.667Z,3.80
2022-12-12T08:48:35.553Z,3.94
2022-12-12T08:49:35.448Z,3.76
2022-12-12T08:50:35.525Z,3.58
2022-12-12T08:51:35.529Z,3.57
2022-12-12T08:52:35.397Z,3.46
2022-12-12T08:53:35.398Z,3.47
2022-12-12T08:54:35.414Z,3.28
2022-12-12T08:55:35.392Z,3.47
2022-12-12T08:56:35.528Z,3.44
2022-12-12T08:57:35.384Z,3.52
2022-12-12T08:58:35.337Z,3.60
2022-12-12T08:59:35.325Z,3.78
2022-12-12T09:00:35.307Z,3.90
2022-12-12T09:01:35.379Z,3.68
2022-12-12T09:02:35.475Z,3.75
2022-12-12T09:03:35.310Z,3.86
2022-12-12T09:04:35.280Z,3.94
2022-12-12T09:05:35.285Z,3.68
2022-12-12T09:06:35.454Z,3.67
2022-12-12T09:07:35.256Z,3.65
2022-12-12T09:08:35.229Z,3.44
2022-12-12T09:09:35.220Z,3.57
2022-12-12T09:10:35.323Z,3.34
2022-12-12T09:11:35.228Z,3.57
2022-12-12T09:12:41.283Z,3.58
2022-12-12T09:13:36.305Z,3.53
2022-12-12T09:14:35.164Z,3.80
2022-12-12T09:15:35.139Z,3.79
2022-12-12T09:16:35.170Z,3.98
2022-12-12T09:17:35.107Z,4.06
2022-12-12T09:18:35.102Z,4.19
2022-12-12T09:19:35.094Z,4.24
2022-12-12T09:20:35.058Z,4.29
2022-12-12T09:21:35.045Z,4.42
2022-12-12T09:22:35.033Z,4.50
2022-12-12T09:23:35.025Z,4.42
2022-12-12T09:24:35.052Z,4.26
2022-12-12T09:25:38.796Z,4.34
2022-12-12T09:26:36.015Z,4.36
2022-12-12T09:27:34.983Z,4.33
2022-12-12T09:28:35.107Z,4.37
2022-12-12T09:29:34.972Z,4.40
2022-12-12T09:30:34.998Z,4.37
2022-12-12T09:31:35.027Z,4.37
2022-12-12T09:32:34.925Z,4.44
2022-12-12T09:33:34.945Z,4.47
2022-12-12T09:34:34.912Z,4.26
2022-12-12T09:35:34.929Z,4.26
2022-12-12T09:36:34.925Z,4.47
2022-12-12T09:37:34.920Z,4.37
2022-12-12T09:38:34.919Z,4.42
2022-12-12T09:39:34.849Z,4.29
2022-12-12T09:40:34.854Z,4.18
2022-12-12T09:41:34.827Z,4.15
2022-12-12T09:42:34.860Z,4.25
2022-12-12T09:43:34.819Z,4.21
2022-12-12T09:44:34.795Z,4.33
2022-12-12T09:45:34.800Z,4.50
2022-12-12T09:46:34.787Z,4.47
2022-12-12T09:47:34.775Z,4.43
2022-12-12T09:48:34.906Z,4.22
2022-12-12T09:49:39.911Z,4.25
2022-12-12T09:50:35.721Z,4.16
2022-12-12T09:51:34.731Z,4.19
2022-12-12T09:52:34.709Z,4.29
2022-12-12T09:53:34.738Z,4.32
2022-12-12T09:54:34.707Z,4.19
2022-12-12T09:55:34.666Z,4.14
2022-12-12T09:56:34.678Z,4.16
2022-12-12T09:57:34.699Z,4.29
2022-12-12T09:58:34.709Z,4.43
2022-12-12T09:59:34.624Z,4.43
2022-12-12T10:00:34.710Z,4.44
2022-12-12T10:01:34.601Z,4.46
2022-12-12T10:02:34.704Z,4.26
2022-12-12T10:03:34.576Z,4.15
2022-12-12T10:04:34.573Z,4.04
2022-12-12T10:05:35.369Z,3.78
2022-12-12T10:06:37.434Z,3.92
2022-12-12T10:07:34.529Z,4.03
2022-12-12T10:08:34.591Z,3.98
2022-12-12T10:09:34.559Z,4.18
2022-12-12T10:10:34.557Z,4.28
2022-12-12T10:11:34.487Z,4.42
2022-12-12T10:12:34.519Z,4.28
2022-12-12T10:13:34.482Z,4.40
2022-12-12T10:14:34.492Z,4.39
2022-12-12T10:15:34.484Z,4.44
2022-12-12T10:16:34.481Z,4.40
2022-12-12T10:17:34.479Z,4.21
2022-12-12T10:18:34.433Z,4.32
2022-12-12T10:19:34.408Z,4.21
2022-12-12T10:20:34.409Z,4.18
2022-12-12T10:21:34.391Z,4.14
2022-12-12T10:22:34.370Z,4.18
2022-12-12T10:23:34.380Z,4.08
2022-12-12T10:24:34.348Z,4.24
2022-12-12T10:25:34.327Z,3.89
2022-12-12T10:26:34.329Z,3.88
2022-12-12T10:27:34.309Z,4.03
2022-12-12T10:28:34.349Z,4.12
2022-12-12T10:29:39.647Z,4.08
2022-12-12T10:30:35.290Z,4.04
2022-12-12T10:31:34.340Z,4.03
2022-12-12T10:32:34.260Z,4.22
2022-12-12T10:33:34.259Z,4.34
2022-12-12T10:34:34.290Z,4.12
2022-12-12T10:35:34.232Z,4.21
2022-12-12T10:36:34.211Z,4.00
2022-12-12T10:37:34.228Z,3.96
2022-12-12T10:38:34.190Z,4.12
2022-12-12T10:39:34.175Z,3.88
2022-12-12T10:40:34.215Z,3.65
2022-12-12T10:41:34.154Z,3.60
2022-12-12T10:42:34.171Z,3.65
2022-12-12T10:43:34.148Z,3.57
2022-12-12T10:44:34.124Z,3.57
2022-12-12T10:45:34.152Z,3.40
2022-12-12T10:46:34.326Z,3.40
2022-12-12T10:47:34.091Z,3.53
2022-12-12T10:48:34.080Z,3.60
2022-12-12T10:49:34.061Z,3.75
2022-12-12T10:50:34.067Z,3.83
2022-12-12T10:51:34.049Z,3.89
2022-12-12T10:52:34.050Z,3.86
2022-12-12T10:53:34.030Z,3.83
2022-12-12T10:54:34.029Z,3.76
2022-12-12T10:55:34.008Z,3.39
2022-12-12T10:56:33.989Z,3.52
2022-12-12T10:57:34.023Z,3.52
2022-12-12T10:58:33.967Z,3.58
2022-12-12T10:59:33.962Z,3.33
2022-12-12T11:00:33.953Z,3.15
2022-12-12T11:02:07.648Z,3.31
2022-12-12T11:02:35.130Z,3.34
2022-12-12T11:03:33.945Z,3.24
2022-12-12T11:04:33.902Z,3.33
2022-12-12T11:05:33.913Z,3.33
2022-12-12T11:06:33.874Z,3.27
2022-12-12T11:07:33.863Z,3.27
2022-12-12T11:08:33.948Z,3.54
2022-12-12T11:09:33.844Z,3.75
2022-12-12T11:10:34.572Z,3.79
2022-12-12T11:11:33.849Z,3.85
2022-12-12T11:12:33.878Z,3.67
2022-12-12T11:13:33.848Z,3.70
2022-12-12T11:14:33.823Z,3.83
2022-12-12T11:15:33.782Z,3.78
2022-12-12T11:16:33.843Z,3.75
2022-12-12T11:17:33.794Z,3.68
2022-12-12T11:18:33.777Z,3.79
2022-12-12T11:19:33.794Z,3.72
2022-12-12T11:20:33.712Z,3.79
2022-12-12T11:21:33.714Z,3.79
2022-12-12T11:22:33.712Z,3.89
2022-12-12T11:23:33.709Z,3.82
2022-12-12T11:24:33.682Z,3.70
2022-12-12T11:25:33.746Z,3.78
2022-12-12T11:26:33.653Z,3.86
2022-12-12T11:27:33.672Z,4.06
2022-12-12T11:28:33.689Z,4.19
2022-12-12T11:29:33.690Z,4.10
2022-12-12T11:30:33.624Z,4.14
2022-12-12T11:31:33.698Z,4.29
2022-12-12T11:32:33.613Z,4.33
2022-12-12T11:33:33.645Z,4.42
2022-12-12T11:34:34.096Z,4.46
2022-12-12T11:35:33.585Z,4.47
2022-12-12T11:36:33.617Z,4.47
2022-12-12T11:37:33.552Z,4.34
2022-12-12T11:38:33.514Z,4.46
2022-12-12T11:39:33.543Z,4.67
2022-12-12T11:40:33.501Z,4.67
2022-12-12T11:41:33.510Z,4.62
2022-12-12T11:42:33.604Z,4.77
2022-12-12T11:43:33.485Z,4.88
2022-12-12T11:44:33.488Z,4.65
2022-12-12T11:45:33.518Z,4.79
2022-12-12T11:46:33.504Z,4.89
2022-12-12T11:47:33.485Z,4.98
2022-12-12T11:48:33.447Z,4.94
2022-12-12T11:49:33.434Z,5.01
2022-12-12T11:50:33.495Z,5.02
2022-12-12T11:51:33.398Z,5.16
2022-12-12T11:52:33.479Z,5.17
2022-12-12T11:53:33.405Z,5.07
2022-12-12T11:54:33.354Z,5.10
2022-12-12T11:55:33.346Z,5.09
2022-12-12T11:56:33.336Z,5.09
2022-12-12T11:57:33.337Z,5.13
2022-12-12T11:58:33.315Z,5.13
2022-12-12T11:59:33.354Z,5.09
2022-12-12T12:00:33.308Z,4.99
2022-12-12T12:01:33.256Z,5.01
2022-12-12T12:02:33.259Z,5.02
2022-12-12T12:03:33.289Z,5.22
2022-12-12T12:04:33.279Z,5.09
2022-12-12T12:05:33.306Z,5.09
2022-12-12T12:06:33.236Z,5.01
2022-12-12T12:07:33.205Z,5.05
2022-12-12T12:08:33.276Z,5.13
2022-12-12T12:09:33.195Z,5.13
2022-12-12T12:10:33.166Z,5.34
2022-12-12T12:11:33.258Z,5.35
2022-12-12T12:12:33.144Z,5.57
2022-12-12T12:13:33.137Z,5.60
2022-12-12T12:14:33.146Z,5.60
2022-12-12T12:15:33.159Z,5.60
2022-12-12T12:16:33.139Z,5.81
2022-12-12T12:17:33.125Z,5.55
2022-12-12T12:18:33.092Z,5.50
2022-12-12T12:19:33.089Z,5.48
2022-12-12T12:20:33.084Z,5.52
2022-12-12T12:21:33.068Z,5.41
2022-12-12T12:22:33.079Z,5.55
2022-12-12T12:23:37.655Z,5.57
2022-12-12T12:24:34.044Z,5.45
2022-12-12T12:25:33.188Z,5.48
2022-12-12T12:26:33.020Z,5.55
2022-12-12T12:27:33.038Z,5.50
2022-12-12T12:28:33.079Z,5.56
2022-12-12T12:29:32.996Z,5.59
2022-12-12T12:30:33.045Z,5.60
2022-12-12T12:31:33.003Z,5.52
2022-12-12T12:32:32.913Z,5.56
2022-12-12T12:33:32.976Z,5.59
2022-12-12T12:34:33.018Z,4.96
2022-12-12T12:35:32.947Z,5.01
2022-12-12T12:36:32.899Z,5.10
2022-12-12T12:37:32.941Z,5.35
2022-12-12T12:38:32.969Z,5.53
2022-12-12T12:39:32.888Z,5.63
2022-12-12T12:40:32.903Z,5.46
2022-12-12T12:41:32.890Z,4.95
2022-12-12T12:42:32.885Z,4.95
2022-12-12T12:43:32.918Z,4.72
2022-12-12T12:44:32.854Z,4.86
2022-12-12T12:45:32.950Z,4.99
2022-12-12T12:46:32.823Z,4.98
2022-12-12T12:47:32.861Z,4.51
2022-12-12T12:48:32.799Z,4.22
2022-12-12T12:49:32.743Z,3.98
2022-12-12T12:50:32.717Z,3.90
2022-12-12T12:51:32.780Z,3.98
2022-12-12T12:52:32.683Z,4.12
2022-12-12T12:53:32.678Z,4.21
2022-12-12T12:54:32.660Z,4.28
2022-12-12T12:55:32.665Z,4.00
2022-12-12T12:56:32.641Z,4.00
2022-12-12T12:57:32.686Z,3.97
2022-12-12T12:58:32.612Z,3.86
2022-12-12T12:59:32.612Z,3.58
2022-12-12T13:00:32.594Z,3.68
2022-12-12T13:01:32.650Z,3.16
2022-12-12T13:02:32.635Z,3.12
2022-12-12T13:03:32.551Z,2.94
2022-12-12T13:04:32.552Z,3.12
2022-12-12T13:05:32.543Z,3.03
2022-12-12T13:06:32.534Z,3.28
2022-12-12T13:07:36.093Z,3.70
2022-12-12T13:08:33.581Z,3.96
2022-12-12T13:09:32.524Z,3.88
2022-12-12T13:10:32.494Z,3.50
2022-12-12T13:11:32.475Z,3.57
2022-12-12T13:12:32.474Z,3.52
2022-12-12T13:13:32.469Z,3.78
2022-12-12T13:14:32.515Z,3.85
2022-12-12T13:15:32.517Z,3.80
2022-12-12T13:16:32.483Z,3.68
2022-12-12T13:17:32.462Z,3.47
2022-12-12T13:18:44.506Z,3.50
2022-12-12T13:19:33.442Z,3.44